Terminal Aerodrome Forecast
Issued by NWS

Home | Current Version | Previous Version | Text Only | Print | Product List | Glossary On
Versions: 1 2 3 4 5 6 7 8 9 10 11 12 13 14 15 16 17
000
FTUS45 KGJT 032328
TAFDRO
TAF
KDRO 032328Z 0400/0424 23008KT P6SM FEW140
     FM040100 29007KT P6SM FEW250
     FM040400 34006KT P6SM SKC
     FM041500 10004KT P6SM SKC
     FM041800 16006KT P6SM FEW250=

USA.gov is the U.S. government's official web portal to all federal, state and local government web resources and services.